createdAt,value
2023-06-16T00:01:16.429Z,3.10
2023-06-16T00:03:45.260Z,3.08
2023-06-16T00:06:15.871Z,3.10
2023-06-16T00:08:45.823Z,3.13
2023-06-16T00:11:17.363Z,3.17
2023-06-16T00:13:48.381Z,2.65
2023-06-16T00:16:20.702Z,3.08
2023-06-16T00:18:53.101Z,2.97
2023-06-16T00:21:21.112Z,3.17
2023-06-16T00:23:48.511Z,3.38
2023-06-16T00:26:16.037Z,3.15
2023-06-16T00:28:45.267Z,3.20
2023-06-16T00:31:14.312Z,3.00
2023-06-16T00:33:41.759Z,3.13
2023-06-16T00:36:09.165Z,3.03
2023-06-16T00:38:36.629Z,3.35
2023-06-16T00:41:04.050Z,3.38
2023-06-16T00:43:31.633Z,3.42
2023-06-16T00:45:59.852Z,3.20
2023-06-16T00:48:27.377Z,3.38
2023-06-16T00:50:56.205Z,2.88
2023-06-16T00:53:23.700Z,3.00
2023-06-16T00:55:51.887Z,3.47
2023-06-16T00:58:19.679Z,3.30
2023-06-16T01:00:47.414Z,3.38
2023-06-16T01:03:18.119Z,3.20
2023-06-16T01:05:45.936Z,3.38
2023-06-16T01:08:30.639Z,3.30
2023-06-16T01:11:04.080Z,3.33
2023-06-16T01:13:41.970Z,3.28
2023-06-16T01:16:09.693Z,3.38
2023-06-16T01:18:39.196Z,3.30
2023-06-16T01:21:25.677Z,3.47
2023-06-16T01:23:53.469Z,3.50
2023-06-16T01:26:25.311Z,3.35
2023-06-16T01:28:53.422Z,3.42
2023-06-16T01:31:22.498Z,3.35
2023-06-16T01:33:50.468Z,3.60
2023-06-16T01:36:18.334Z,3.45
2023-06-16T01:38:46.103Z,3.40
2023-06-16T01:41:14.817Z,3.75
2023-06-16T01:43:42.283Z,3.35
2023-06-16T01:46:09.917Z,3.40
2023-06-16T01:48:37.492Z,3.85
2023-06-16T01:51:05.490Z,3.58
2023-06-16T01:53:34.269Z,3.42
2023-06-16T01:56:01.739Z,3.47
2023-06-16T01:58:32.052Z,3.60
2023-06-16T02:01:01.251Z,3.60
2023-06-16T02:03:33.720Z,3.40
2023-06-16T02:06:02.809Z,3.88
2023-06-16T02:08:31.463Z,3.95
2023-06-16T02:10:59.006Z,3.85
2023-06-16T02:13:26.628Z,3.95
2023-06-16T02:15:54.058Z,3.95
2023-06-16T02:18:25.944Z,3.78
2023-06-16T02:20:53.430Z,4.13
2023-06-16T02:23:21.273Z,4.22
2023-06-16T02:25:50.264Z,3.80
2023-06-16T02:28:17.794Z,3.80
2023-06-16T02:30:45.954Z,3.95
2023-06-16T02:33:16.904Z,4.00
2023-06-16T02:35:44.462Z,4.03
2023-06-16T02:38:12.581Z,3.72
2023-06-16T02:40:39.972Z,3.83
2023-06-16T02:43:09.395Z,3.80
2023-06-16T02:45:36.950Z,4.35
2023-06-16T02:48:04.590Z,3.90
2023-06-16T02:50:32.434Z,4.10
2023-06-16T02:53:04.214Z,3.90
2023-06-16T02:55:32.688Z,3.95
2023-06-16T02:58:00.779Z,4.25
2023-06-16T03:00:28.502Z,3.38
2023-06-16T03:03:17.576Z,3.78
2023-06-16T03:05:51.714Z,4.40
2023-06-16T03:08:21.379Z,3.97
2023-06-16T03:10:48.868Z,4.20
2023-06-16T03:13:23.677Z,3.95
2023-06-16T03:15:53.783Z,3.75
2023-06-16T03:18:21.632Z,4.18
2023-06-16T03:20:49.070Z,4.03
2023-06-16T03:23:22.504Z,4.13
2023-06-16T03:25:50.044Z,4.03
2023-06-16T03:28:22.030Z,4.32
2023-06-16T03:30:53.591Z,3.63
2023-06-16T03:33:34.019Z,4.03
2023-06-16T03:36:03.112Z,4.00
2023-06-16T03:38:39.883Z,4.00
2023-06-16T03:41:07.391Z,4.00
2023-06-16T03:43:34.877Z,3.85
2023-06-16T03:46:02.339Z,4.43
2023-06-16T03:48:31.758Z,3.85
2023-06-16T03:51:02.701Z,4.00
2023-06-16T03:53:30.895Z,4.00
2023-06-16T03:55:59.327Z,4.60
2023-06-16T03:58:27.017Z,4.45
2023-06-16T04:00:54.471Z,4.07
2023-06-16T04:03:23.655Z,3.88
2023-06-16T04:05:51.500Z,4.10
2023-06-16T04:08:18.895Z,4.38
2023-06-16T04:10:46.353Z,4.18
2023-06-16T04:13:14.197Z,4.30
2023-06-16T04:15:44.014Z,4.00
2023-06-16T04:18:14.281Z,4.18
2023-06-16T04:20:41.915Z,4.53
2023-06-16T04:23:10.635Z,3.92
2023-06-16T04:25:39.362Z,4.22
2023-06-16T04:28:07.399Z,4.18
2023-06-16T04:30:35.091Z,4.43
2023-06-16T04:33:04.247Z,4.40
2023-06-16T04:35:35.453Z,4.32
2023-06-16T04:38:05.163Z,4.43
2023-06-16T04:40:34.359Z,4.43
2023-06-16T04:43:01.997Z,4.05
2023-06-16T04:45:30.141Z,4.45
2023-06-16T04:47:58.085Z,4.22
2023-06-16T04:50:25.623Z,4.32
2023-06-16T04:52:53.214Z,5.03
2023-06-16T04:55:22.153Z,4.65
2023-06-16T04:57:49.769Z,4.78
2023-06-16T05:00:17.842Z,4.65
2023-06-16T05:02:45.668Z,4.70
2023-06-16T05:05:13.161Z,4.53
2023-06-16T05:07:40.675Z,4.43
2023-06-16T05:10:08.674Z,4.38
2023-06-16T05:12:36.193Z,4.45
2023-06-16T05:15:04.214Z,4.80
2023-06-16T05:17:32.598Z,4.78
2023-06-16T05:20:00.250Z,4.95
2023-06-16T05:22:28.158Z,4.70
2023-06-16T05:24:58.801Z,5.05
2023-06-16T05:27:26.691Z,4.47
2023-06-16T05:30:00.343Z,5.35
2023-06-16T05:32:29.680Z,5.10
2023-06-16T05:34:58.185Z,4.53
2023-06-16T05:37:27.631Z,4.70
2023-06-16T05:39:55.306Z,4.70
2023-06-16T05:42:22.834Z,4.70
2023-06-16T05:44:51.625Z,5.47
2023-06-16T05:47:19.540Z,5.30
2023-06-16T05:49:48.222Z,4.55
2023-06-16T05:52:16.096Z,5.32
2023-06-16T05:54:44.244Z,4.85
2023-06-16T05:57:18.798Z,4.82
2023-06-16T05:59:46.186Z,4.60
2023-06-16T06:02:14.466Z,5.00
2023-06-16T06:04:44.537Z,4.90
2023-06-16T06:07:12.919Z,4.95
2023-06-16T06:09:41.794Z,5.57
2023-06-16T06:12:10.140Z,5.07
2023-06-16T06:14:38.975Z,4.80
2023-06-16T06:17:06.860Z,4.80
2023-06-16T06:19:34.407Z,4.70
2023-06-16T06:22:03.056Z,4.95
2023-06-16T06:24:31.122Z,4.70
2023-06-16T06:27:00.166Z,4.70
2023-06-16T06:29:27.721Z,4.97
2023-06-16T06:31:55.133Z,4.78
2023-06-16T06:34:22.944Z,5.10
2023-06-16T06:36:51.661Z,4.75
2023-06-16T06:39:19.925Z,4.80
2023-06-16T06:41:47.960Z,4.82
2023-06-16T06:44:18.836Z,4.50
2023-06-16T06:46:50.478Z,5.00
2023-06-16T06:49:19.593Z,5.07
2023-06-16T06:51:47.059Z,4.35
2023-06-16T06:54:14.468Z,4.97
2023-06-16T06:56:41.943Z,4.95
2023-06-16T06:59:09.324Z,4.53
2023-06-16T07:01:38.741Z,4.80
